Time;durP1;ratioP1;P1;durP2;ratioP2;P2;SDS_P1;SDS_P2;PMS_P1;PMS_P2;Temp;Humidity;BMP_temperature;BMP_pressure;BME280_temperature;BME280_humidity;BME280_pressure;Samples;Min_cycle;Max_cycle;Signal;HPM_P1;HPM_P2
2020/12/11 00:04:25;;;;;;;18.57;16.57;;;5.20;99.90;;;;;;10192967;29;20760;-80
2020/12/11 00:09:28;;;;;;;16.97;15.20;;;5.30;99.90;;;;;;10207455;29;20264;-80
2020/12/11 00:14:30;;;;;;;17.70;15.90;;;5.30;99.90;;;;;;10203505;29;20280;-81
2020/12/11 00:19:32;;;;;;;17.43;15.70;;;5.30;99.90;;;;;;10220762;29;20720;-79
2020/12/11 00:24:35;;;;;;;31.53;28.10;;;5.30;99.90;;;;;;10249170;29;20208;-79
2020/12/11 00:29:39;;;;;;;17.40;15.63;;;5.20;99.90;;;;;;10241372;29;20291;-79
2020/12/11 00:34:41;;;;;;;18.23;16.33;;;5.20;99.80;;;;;;10234401;29;20200;-79
2020/12/11 00:39:43;;;;;;;15.70;14.20;;;5.20;98.90;;;;;;10228366;28;696010;-80
2020/12/11 00:44:45;;;;;;;15.73;14.17;;;5.20;99.00;;;;;;10275139;29;20231;-80
2020/12/11 00:49:47;;;;;;;16.17;14.67;;;5.10;99.00;;;;;;10263564;29;20223;-82
2020/12/11 00:54:49;;;;;;;16.13;14.43;;;5.10;99.40;;;;;;10237611;29;20193;-82
2020/12/11 00:59:51;;;;;;;16.80;15.20;;;5.10;98.80;;;;;;10202993;29;20599;-81
2020/12/11 01:04:54;;;;;;;15.00;13.13;;;5.20;98.90;;;;;;10196760;29;20276;-80
2020/12/11 01:09:55;;;;;;;15.80;14.30;;;5.10;98.80;;;;;;10216556;29;20217;-82
2020/12/11 01:14:57;;;;;;;14.27;12.93;;;5.10;99.00;;;;;;10216831;29;20730;-83
2020/12/11 01:19:59;;;;;;;14.23;12.80;;;5.10;99.20;;;;;;10197394;29;20243;-81
2020/12/11 01:25:01;;;;;;;14.90;13.40;;;5.10;98.80;;;;;;10200290;29;20641;-81
2020/12/11 01:30:03;;;;;;;14.43;13.03;;;5.10;99.00;;;;;;10187875;28;20231;-83
2020/12/11 01:35:06;;;;;;;12.50;11.37;;;5.00;99.10;;;;;;10216715;29;20196;-81
2020/12/11 01:40:07;;;;;;;13.57;12.27;;;5.00;98.40;;;;;;10215902;29;20312;-82
2020/12/11 01:45:09;;;;;;;13.53;12.30;;;4.90;99.00;;;;;;10191837;29;20205;-83
2020/12/11 01:50:18;;;;;;;14.43;13.03;;;4.80;98.90;;;;;;10205411;29;20223;-82
2020/12/11 01:55:21;;;;;;;13.10;11.80;;;4.70;98.70;;;;;;10218533;29;20201;-82
2020/12/11 02:00:23;;;;;;;14.27;12.80;;;4.60;99.60;;;;;;10214604;29;20710;-83
2020/12/11 02:05:27;;;;;;;13.60;12.40;;;4.60;99.70;;;;;;10202319;29;20206;-81
2020/12/11 02:10:28;;;;;;;13.87;12.63;;;4.60;99.40;;;;;;10244988;29;20236;-82
2020/12/11 02:15:30;;;;;;;13.00;11.80;;;4.60;98.90;;;;;;10270330;29;20203;-81
2020/12/11 02:20:32;;;;;;;12.67;11.47;;;4.60;98.90;;;;;;10265966;29;20311;-82
2020/12/11 02:25:35;;;;;;;12.47;11.27;;;4.50;99.10;;;;;;10264078;29;20201;-79
2020/12/11 02:30:36;;;;;;;13.07;11.97;;;4.40;99.40;;;;;;10195847;29;21084;-80
2020/12/11 02:35:41;;;;;;;13.87;12.63;;;4.30;99.60;;;;;;10213749;29;20252;-80
2020/12/11 02:40:49;;;;;;;13.33;12.03;;;4.20;99.90;;;;;;10202929;29;20240;-80
2020/12/11 02:45:52;;;;;;;14.50;13.10;;;4.10;99.90;;;;;;10214207;29;20216;-80
2020/12/11 02:50:54;;;;;;;14.00;12.70;;;4.00;99.80;;;;;;10216724;29;20213;-81
2020/12/11 02:55:59;;;;;;;14.27;12.93;;;4.00;99.90;;;;;;10217749;29;20208;-80
2020/12/11 03:01:00;;;;;;;13.40;12.20;;;4.00;99.90;;;;;;10228330;29;21005;-80
2020/12/11 03:06:02;;;;;;;16.67;15.07;;;4.00;99.90;;;;;;10189460;29;20274;-80
2020/12/11 03:11:04;;;;;;;15.30;13.80;;;3.90;99.90;;;;;;10193371;29;20209;-81
2020/12/11 03:16:08;;;;;;;15.40;13.90;;;3.90;99.90;;;;;;10198663;29;20288;-80
2020/12/11 03:21:10;;;;;;;17.33;15.73;;;4.00;99.90;;;;;;10235208;29;20274;-80
2020/12/11 03:26:13;;;;;;;17.80;16.10;;;4.10;99.90;;;;;;10221196;29;20673;-81
2020/12/11 03:31:16;;;;;;;16.97;15.27;;;4.10;99.90;;;;;;10230516;29;20227;-80
2020/12/11 03:36:21;;;;;;;17.63;15.83;;;4.10;99.80;;;;;;10258592;29;20545;-81
2020/12/11 03:41:23;;;;;;;16.10;14.50;;;4.10;99.90;;;;;;10257230;28;20682;-81
2020/12/11 03:46:25;;;;;;;16.77;15.20;;;4.00;99.90;;;;;;10231710;29;20203;-79
2020/12/11 03:51:27;;;;;;;16.73;15.13;;;4.00;99.90;;;;;;10265886;29;20693;-80
2020/12/11 03:56:29;;;;;;;15.60;14.10;;;3.90;99.90;;;;;;10264760;29;20181;-81
2020/12/11 04:01:33;;;;;;;17.17;15.47;;;3.80;99.90;;;;;;10231630;29;20217;-80
2020/12/11 04:06:35;;;;;;;16.23;14.63;;;3.80;99.90;;;;;;10206701;29;20216;-80
2020/12/11 04:11:38;;;;;;;18.97;17.00;;;3.60;99.90;;;;;;10188018;29;20641;-80
2020/12/11 04:16:39;;;;;;;18.10;16.23;;;3.50;99.90;;;;;;10183003;29;20198;-80
2020/12/11 04:21:47;;;;;;;19.57;17.50;;;3.50;99.90;;;;;;10218951;29;20330;-81
2020/12/11 04:26:50;;;;;;;19.93;17.17;;;3.50;99.90;;;;;;10224807;29;20205;-81
2020/12/11 04:31:55;;;;;;;19.03;17.13;;;3.50;99.90;;;;;;10225330;29;20228;-81
2020/12/11 04:36:58;;;;;;;18.60;16.60;;;3.50;99.90;;;;;;10214616;29;20240;-80
2020/12/11 04:42:03;;;;;;;18.93;16.93;;;3.60;99.90;;;;;;10240836;29;20228;-82
2020/12/11 04:47:05;;;;;;;20.50;18.30;;;3.60;99.90;;;;;;10230174;29;20204;-82
2020/12/11 04:52:07;;;;;;;19.60;17.60;;;3.60;99.90;;;;;;10258017;28;20291;-80
2020/12/11 04:57:10;;;;;;;20.27;17.50;;;3.70;99.90;;;;;;10261432;29;20214;-80
2020/12/11 05:02:12;;;;;;;20.13;17.90;;;3.60;99.90;;;;;;10256663;29;20239;-80
2020/12/11 05:07:14;;;;;;;21.37;19.10;;;3.60;99.90;;;;;;10261171;29;20204;-81
2020/12/11 05:12:16;;;;;;;20.13;16.90;;;3.60;99.90;;;;;;10267501;29;20205;-82
2020/12/11 05:17:18;;;;;;;19.93;17.90;;;3.50;99.90;;;;;;10249927;29;20650;-81
2020/12/11 05:22:20;;;;;;;20.10;18.10;;;3.40;99.90;;;;;;10262442;29;20231;-82
2020/12/11 05:27:35;;;;;;;22.40;19.37;;;3.30;99.90;;;;;;10210973;29;20225;-80
2020/12/11 05:32:40;;;;;;;18.57;16.57;;;3.20;99.90;;;;;;10197436;29;20222;-81
2020/12/11 05:37:46;;;;;;;19.83;17.67;;;3.20;99.90;;;;;;10196729;29;20206;-82
2020/12/11 05:43:15;;;;;;;20.50;18.40;;;3.10;99.90;;;;;;10184258;29;20225;-82
2020/12/11 05:48:17;;;;;;;22.00;19.07;;;3.00;99.90;;;;;;10154908;29;20259;-79
2020/12/11 05:53:19;;;;;;;20.90;18.60;;;3.00;99.90;;;;;;10257925;29;20641;-79
2020/12/11 05:58:21;;;;;;;18.93;16.80;;;3.00;99.90;;;;;;10258376;29;20212;-80
2020/12/11 06:03:25;;;;;;;21.50;18.50;;;3.00;99.90;;;;;;10260693;28;20244;-79
2020/12/11 06:08:27;;;;;;;20.60;17.70;;;3.00;99.90;;;;;;10242586;29;20221;-80
2020/12/11 06:13:39;;;;;;;21.90;17.93;;;3.10;99.90;;;;;;10255223;29;20200;-79
2020/12/11 06:18:42;;;;;;;19.83;17.17;;;3.20;99.90;;;;;;10241011;29;20212;-79
2020/12/11 06:23:45;;;;;;;19.20;17.10;;;3.20;99.90;;;;;;10254079;29;20705;-79
2020/12/11 06:28:49;;;;;;;18.03;16.13;;;3.20;99.90;;;;;;10231109;29;20316;-79
2020/12/11 06:33:52;;;;;;;19.33;17.23;;;3.20;99.90;;;;;;10217995;29;20235;-79
2020/12/11 06:38:55;;;;;;;18.97;16.40;;;3.20;99.90;;;;;;10227431;29;20276;-80
2020/12/11 06:43:58;;;;;;;20.30;17.53;;;3.20;99.90;;;;;;10225275;29;20350;-79
2020/12/11 06:49:08;;;;;;;18.57;16.57;;;3.10;99.90;;;;;;10235755;29;20624;-79
2020/12/11 06:54:09;;;;;;;17.27;15.57;;;3.10;99.90;;;;;;10203570;29;20575;-79
2020/12/11 06:59:23;;;;;;;19.23;16.83;;;3.10;99.90;;;;;;10232267;29;20733;-79
2020/12/11 07:04:36;;;;;;;17.63;15.73;;;3.20;99.50;;;;;;10227533;29;20243;-79
2020/12/11 07:09:38;;;;;;;20.20;16.87;;;3.20;99.10;;;;;;10228915;29;20225;-79
2020/12/11 07:14:41;;;;;;;18.40;16.50;;;3.30;99.10;;;;;;10200663;29;20240;-80
2020/12/11 07:19:43;;;;;;;17.63;15.73;;;3.30;99.30;;;;;;10226325;29;20303;-80
2020/12/11 07:24:45;;;;;;;18.43;16.37;;;3.30;98.80;;;;;;10227040;29;20216;-79
2020/12/11 07:29:51;;;;;;;18.63;16.20;;;3.30;98.50;;;;;;10217940;29;20213;-79
2020/12/11 07:34:53;;;;;;;18.80;16.80;;;3.30;98.70;;;;;;10217703;29;20193;-79
2020/12/11 07:39:55;;;;;;;19.33;16.73;;;3.30;99.00;;;;;;10248177;29;20233;-79
2020/12/11 07:44:57;;;;;;;21.00;16.27;;;3.20;98.50;;;;;;10258392;29;20197;-79
2020/12/11 07:50:06;;;;;;;19.17;16.17;;;3.20;99.00;;;;;;10241787;29;20217;-79
2020/12/11 07:55:11;;;;;;;18.23;16.30;;;3.20;99.00;;;;;;10252021;29;20563;-79
2020/12/11 08:00:14;;;;;;;21.20;17.63;;;3.30;98.40;;;;;;10218918;29;20304;-79
2020/12/11 08:05:16;;;;;;;19.27;17.17;;;3.40;99.00;;;;;;10228887;29;20736;-79
2020/12/11 08:10:19;;;;;;;20.80;17.77;;;3.40;98.50;;;;;;10227269;29;20227;-80
2020/12/11 08:15:30;;;;;;;20.43;16.63;;;3.50;99.10;;;;;;10216593;29;20606;-79
2020/12/11 08:20:43;;;;;;;17.70;15.80;;;3.60;98.90;;;;;;10205542;29;20293;-78
2020/12/11 08:25:44;;;;;;;18.20;16.30;;;3.70;98.30;;;;;;10215183;29;20249;-79
2020/12/11 08:30:47;;;;;;;18.40;16.40;;;3.70;97.90;;;;;;10220322;29;20251;-80
2020/12/11 08:35:48;;;;;;;18.60;16.40;;;3.70;98.30;;;;;;10219219;29;20210;-78
2020/12/11 08:40:50;;;;;;;19.73;17.23;;;3.70;98.10;;;;;;10227338;29;20315;-80
2020/12/11 08:46:05;;;;;;;20.53;16.53;;;3.80;99.10;;;;;;10245587;29;20288;-79
2020/12/11 08:51:07;;;;;;;19.93;17.70;;;3.90;98.50;;;;;;10210492;29;20494;-79
2020/12/11 08:56:09;;;;;;;20.20;17.10;;;4.10;99.10;;;;;;10238645;28;20208;-79
2020/12/11 09:01:11;;;;;;;18.80;15.70;;;4.30;98.10;;;;;;10251603;29;20216;-79
2020/12/11 09:06:13;;;;;;;19.60;15.30;;;4.40;97.60;;;;;;10248560;28;20197;-79
2020/12/11 09:11:15;;;;;;;19.03;15.77;;;4.50;96.80;;;;;;10232200;29;20264;-79
2020/12/11 09:16:17;;;;;;;18.10;14.83;;;4.60;96.90;;;;;;10235265;29;20205;-79
2020/12/11 09:21:19;;;;;;;16.30;14.40;;;4.70;97.60;;;;;;10236506;29;20235;-80
2020/12/11 09:26:23;;;;;;;15.97;13.93;;;4.80;97.10;;;;;;10230871;29;20232;-79
2020/12/11 09:31:26;;;;;;;18.17;14.63;;;5.00;96.60;;;;;;10196755;29;20222;-79
2020/12/11 09:36:28;;;;;;;16.47;14.07;;;5.00;97.00;;;;;;10205632;29;20202;-79
2020/12/11 09:41:33;;;;;;;15.40;13.77;;;5.10;96.90;;;;;;10199249;29;20236;-79
2020/12/11 09:46:42;;;;;;;13.57;12.17;;;5.20;96.50;;;;;;10234709;29;20200;-79
2020/12/11 09:51:55;;;;;;;14.23;12.00;;;5.40;96.10;;;;;;10216338;29;20304;-80
2020/12/11 09:56:57;;;;;;;14.40;12.87;;;5.30;95.90;;;;;;10225389;29;20215;-79
2020/12/11 10:02:15;;;;;;;15.90;12.97;;;5.30;96.10;;;;;;10202143;29;20238;-80
2020/12/11 10:07:17;;;;;;;14.17;12.67;;;5.30;95.70;;;;;;10208141;29;20205;-79
2020/12/11 10:12:22;;;;;;;15.23;11.80;;;5.30;95.00;;;;;;10195570;29;20237;-79
2020/12/11 10:17:24;;;;;;;15.60;13.93;;;5.30;95.10;;;;;;10237993;29;20294;-78
2020/12/11 10:22:26;;;;;;;11.90;10.57;;;5.40;95.80;;;;;;10249628;29;20229;-78
2020/12/11 10:27:28;;;;;;;13.60;11.67;;;5.50;95.90;;;;;;10232462;29;20220;-78
2020/12/11 10:32:30;;;;;;;15.70;13.30;;;5.60;96.20;;;;;;10214983;29;20232;-78
2020/12/11 10:37:32;;;;;;;11.87;10.67;;;5.70;95.90;;;;;;10235716;29;20780;-79
2020/12/11 10:42:34;;;;;;;13.03;10.20;;;5.80;96.10;;;;;;10234275;29;20232;-78
2020/12/11 10:47:36;;;;;;;14.20;11.43;;;5.90;95.40;;;;;;10227018;29;20657;-78
2020/12/11 10:52:38;;;;;;;13.53;10.77;;;5.90;94.80;;;;;;10208042;29;20760;-78
2020/12/11 10:57:40;;;;;;;11.83;10.63;;;5.90;94.70;;;;;;10228719;29;20238;-78
2020/12/11 11:02:44;;;;;;;13.17;11.87;;;5.90;94.50;;;;;;10231186;29;20280;-78
2020/12/11 11:07:46;;;;;;;12.60;10.83;;;5.80;95.10;;;;;;10231620;29;20197;-79
2020/12/11 11:12:49;;;;;;;12.40;10.70;;;5.80;95.30;;;;;;10231259;29;20756;-78
2020/12/11 11:23:31;;;;;;;11.60;10.40;;;5.90;95.40;;;;;;10195515;29;20268;-79
2020/12/11 11:28:34;;;;;;;13.53;11.30;;;6.00;95.20;;;;;;10230290;29;20224;-78
2020/12/11 11:33:36;;;;;;;11.13;10.00;;;6.00;95.10;;;;;;10224291;29;20622;-79
2020/12/11 11:38:38;;;;;;;11.00;9.77;;;5.90;95.20;;;;;;10197899;29;20240;-78
2020/12/11 11:44:06;;;;;;;14.80;11.70;;;5.80;95.90;;;;;;10206614;29;20271;-80
2020/12/11 11:49:11;;;;;;;12.20;10.87;;;5.90;96.30;;;;;;10222216;29;20477;-78
2020/12/11 11:54:13;;;;;;;11.80;10.60;;;5.90;95.80;;;;;;10228671;29;20546;-79
2020/12/11 11:59:14;;;;;;;13.17;11.47;;;5.90;96.20;;;;;;10213958;29;20221;-79
2020/12/11 12:04:17;;;;;;;12.63;11.23;;;5.90;96.40;;;;;;10225519;29;20227;-79
2020/12/11 12:09:19;;;;;;;13.20;11.40;;;5.90;96.60;;;;;;10206186;29;20231;-78
2020/12/11 12:14:21;;;;;;;14.70;12.30;;;5.90;96.90;;;;;;10229014;29;20561;-79
2020/12/11 12:19:29;;;;;;;14.80;12.67;;;5.90;96.00;;;;;;10214145;29;20232;-79
2020/12/11 12:29:54;;;;;;;15.00;11.13;;;5.90;96.20;;;;;;10229224;29;20368;-79
2020/12/11 12:34:58;;;;;;;13.13;11.83;;;6.00;95.60;;;;;;10253602;29;20198;-79
2020/12/11 12:40:22;;;;;;;15.47;11.90;;;6.00;96.30;;;;;;10240749;29;20229;-79
2020/12/11 12:45:24;;;;;;;12.53;10.90;;;6.10;96.90;;;;;;10222050;29;20201;-79
2020/12/11 12:50:26;;;;;;;14.40;12.40;;;6.20;96.20;;;;;;10238790;29;20300;-80
2020/12/11 12:55:40;;;;;;;14.53;12.10;;;6.30;96.50;;;;;;10224135;29;20232;-80
2020/12/11 13:00:53;;;;;;;14.93;13.33;;;6.30;96.30;;;;;;10233545;29;20239;-80
2020/12/11 13:05:56;;;;;;;12.37;10.87;;;6.40;96.00;;;;;;10233178;28;20205;-79
2020/12/11 13:10:57;;;;;;;14.70;12.03;;;6.40;96.60;;;;;;10207715;29;20681;-80
2020/12/11 13:15:59;;;;;;;15.10;13.00;;;6.30;95.60;;;;;;10199804;29;20292;-80
2020/12/11 13:21:05;;;;;;;14.23;11.60;;;6.20;96.40;;;;;;10220437;29;20716;-79
2020/12/11 13:31:23;;;;;;;13.50;11.40;;;6.40;96.60;;;;;;10193246;29;20300;-78
2020/12/11 13:36:26;;;;;;;12.73;10.30;;;6.50;96.10;;;;;;10186683;29;20639;-79
2020/12/11 13:41:27;;;;;;;12.07;10.77;;;6.50;95.90;;;;;;10215402;29;20232;-79
2020/12/11 13:46:29;;;;;;;13.90;11.73;;;6.50;95.80;;;;;;10213212;29;20713;-80
2020/12/11 13:51:32;;;;;;;14.67;12.00;;;6.40;95.70;;;;;;10195794;29;20371;-80
2020/12/11 13:56:33;;;;;;;13.90;11.33;;;6.40;95.70;;;;;;10219483;29;20650;-78
2020/12/11 14:01:35;;;;;;;12.50;11.07;;;6.30;95.80;;;;;;10227071;29;20224;-79
2020/12/11 14:06:37;;;;;;;14.13;11.90;;;6.30;95.80;;;;;;10197679;29;20216;-79
2020/12/11 14:11:39;;;;;;;13.70;10.50;;;6.20;95.90;;;;;;10210737;29;20227;-80
2020/12/11 14:16:44;;;;;;;13.83;11.47;;;6.10;96.10;;;;;;10206013;29;20664;-78
2020/12/11 14:21:50;;;;;;;12.20;10.87;;;6.10;96.30;;;;;;10229984;28;20618;-79
2020/12/11 14:26:52;;;;;;;12.93;10.80;;;6.20;96.00;;;;;;10227415;28;20771;-80
2020/12/11 14:31:54;;;;;;;10.53;9.43;;;6.20;96.10;;;;;;10229869;29;20283;-80
2020/12/11 14:36:56;;;;;;;13.27;10.07;;;6.20;95.90;;;;;;10237579;28;20235;-80
2020/12/11 14:42:00;;;;;;;9.80;8.77;;;6.30;96.10;;;;;;10200547;29;20241;-80
2020/12/11 14:47:02;;;;;;;12.83;10.20;;;6.30;96.20;;;;;;10193438;29;20216;-79
2020/12/11 14:52:06;;;;;;;12.17;10.37;;;6.40;96.40;;;;;;10220969;29;20319;-80
2020/12/11 14:57:08;;;;;;;13.30;11.07;;;6.40;96.50;;;;;;10219027;29;20273;-80
2020/12/11 15:02:10;;;;;;;13.13;11.17;;;6.40;97.10;;;;;;10200304;29;20228;-80
2020/12/11 15:07:13;;;;;;;13.73;11.10;;;6.30;97.20;;;;;;10198605;29;20207;-80
2020/12/11 15:12:14;;;;;;;12.57;11.07;;;6.30;97.20;;;;;;10214466;29;20658;-79
2020/12/11 15:17:16;;;;;;;13.03;11.73;;;6.20;97.10;;;;;;10192592;29;20199;-80
2020/12/11 15:22:18;;;;;;;14.50;13.00;;;6.20;97.50;;;;;;10227691;29;20225;-79
2020/12/11 15:27:20;;;;;;;14.50;13.00;;;6.10;97.60;;;;;;10213386;29;20211;-81
2020/12/11 15:32:22;;;;;;;12.77;11.40;;;5.90;98.60;;;;;;10187745;29;20231;-78
2020/12/11 15:37:24;;;;;;;14.90;13.37;;;5.70;99.20;;;;;;10198333;29;20209;-79
2020/12/11 15:42:26;;;;;;;18.77;14.37;;;5.40;99.90;;;;;;10239943;28;20610;-79
2020/12/11 15:47:27;;;;;;;13.87;12.30;;;5.30;99.90;;;;;;10228502;29;20213;-79
2020/12/11 15:52:30;;;;;;;17.57;15.67;;;5.10;99.90;;;;;;10238330;29;20217;-80
2020/12/11 15:57:32;;;;;;;17.90;15.67;;;4.90;99.90;;;;;;10197613;29;20839;-80
2020/12/11 16:02:33;;;;;;;18.47;16.30;;;4.80;99.90;;;;;;10220022;29;20221;-79
2020/12/11 16:07:36;;;;;;;16.73;14.93;;;4.70;99.90;;;;;;10236730;29;20200;-80
2020/12/11 16:12:38;;;;;;;17.70;15.37;;;4.70;99.90;;;;;;10216023;29;20221;-80
2020/12/11 16:17:40;;;;;;;18.00;14.90;;;4.60;99.90;;;;;;10213109;29;20279;-81
2020/12/11 16:22:42;;;;;;;17.00;15.30;;;4.60;99.90;;;;;;10225917;29;20592;-79
2020/12/11 16:27:44;;;;;;;20.37;16.40;;;4.50;99.90;;;;;;10187851;29;20209;-80
2020/12/11 16:32:46;;;;;;;17.37;15.17;;;4.60;99.90;;;;;;10229647;29;20247;-80
2020/12/11 16:37:51;;;;;;;18.93;16.00;;;4.60;99.90;;;;;;10231703;29;20320;-79
2020/12/11 16:43:06;;;;;;;16.13;14.43;;;4.60;99.90;;;;;;10233634;29;20343;-80
2020/12/11 16:48:11;;;;;;;17.73;14.40;;;4.70;99.90;;;;;;10207935;28;20216;-78
2020/12/11 16:53:14;;;;;;;17.27;15.00;;;4.70;99.90;;;;;;10238887;29;20211;-78
2020/12/11 16:58:16;;;;;;;18.00;14.60;;;4.70;99.90;;;;;;10220443;29;20213;-78
2020/12/11 17:03:38;;;;;;;19.10;16.17;;;4.70;99.90;;;;;;10181884;29;20225;-79
2020/12/11 17:08:46;;;;;;;18.50;14.67;;;4.70;99.90;;;;;;10198255;29;20209;-80
2020/12/11 17:13:48;;;;;;;18.27;15.60;;;4.70;99.90;;;;;;10232617;29;20208;-81
2020/12/11 17:18:49;;;;;;;16.77;14.80;;;4.80;99.90;;;;;;10235798;29;20240;-82
2020/12/11 17:23:52;;;;;;;17.30;15.27;;;4.80;99.90;;;;;;10252861;29;20240;-81
2020/12/11 17:28:57;;;;;;;17.40;15.47;;;4.90;99.90;;;;;;10244757;29;20245;-82
2020/12/11 17:34:04;;;;;;;18.00;14.10;;;4.90;99.90;;;;;;10241320;29;20204;-82
2020/12/11 17:39:07;;;;;;;15.37;13.67;;;5.00;99.90;;;;;;10254352;29;20671;-83
2020/12/11 17:44:08;;;;;;;15.20;13.53;;;5.00;99.90;;;;;;10236421;29;20689;-82
2020/12/11 17:49:10;;;;;;;14.73;13.13;;;5.10;99.90;;;;;;10235181;29;20223;-82
2020/12/11 17:54:12;;;;;;;14.80;12.90;;;5.20;99.90;;;;;;10239610;29;20199;-81
2020/12/11 17:59:14;;;;;;;16.50;14.50;;;5.30;99.90;;;;;;10210245;29;21007;-81
2020/12/11 18:04:16;;;;;;;13.87;12.13;;;5.40;99.90;;;;;;10207012;29;20213;-81
2020/12/11 18:09:19;;;;;;;14.90;12.97;;;5.40;99.90;;;;;;10222538;29;20689;-82
2020/12/11 18:14:21;;;;;;;13.00;11.60;;;5.50;99.90;;;;;;10194911;29;20922;-82
2020/12/11 18:19:23;;;;;;;14.87;11.37;;;5.50;99.90;;;;;;10206970;29;20231;-82
2020/12/11 18:24:28;;;;;;;12.33;10.90;;;5.40;99.90;;;;;;10202955;29;20236;-80
2020/12/11 18:29:36;;;;;;;12.70;11.40;;;5.40;99.90;;;;;;10217470;29;20236;-81
2020/12/11 18:34:37;;;;;;;12.90;11.60;;;5.40;99.90;;;;;;10233789;28;20197;-81
2020/12/11 18:39:41;;;;;;;13.00;11.70;;;5.50;99.90;;;;;;10202222;29;20236;-80
2020/12/11 18:44:43;;;;;;;12.10;10.90;;;5.50;99.90;;;;;;10195303;29;20668;-81
2020/12/11 18:49:45;;;;;;;12.50;11.20;;;5.60;99.90;;;;;;10218897;29;20224;-80
2020/12/11 18:55:10;;;;;;;13.33;11.93;;;5.70;99.90;;;;;;10217864;29;20227;-81
2020/12/11 19:00:17;;;;;;;13.20;11.43;;;5.70;99.90;;;;;;10215355;28;20229;-81
2020/12/11 19:05:19;;;;;;;13.83;11.40;;;5.70;99.90;;;;;;10230653;29;20222;-79
2020/12/11 19:10:22;;;;;;;12.87;11.47;;;5.80;99.90;;;;;;10243713;28;20228;-80
2020/12/11 19:15:26;;;;;;;12.37;11.07;;;5.80;99.90;;;;;;10224558;28;20192;-79
2020/12/11 19:20:28;;;;;;;12.60;11.30;;;5.80;99.90;;;;;;10233093;29;20633;-80
2020/12/11 19:25:30;;;;;;;13.73;12.20;;;5.70;99.90;;;;;;10226663;29;20595;-80
2020/12/11 19:30:32;;;;;;;11.20;10.10;;;5.70;99.90;;;;;;10205256;29;20300;-79
2020/12/11 19:35:34;;;;;;;12.87;10.00;;;5.80;99.90;;;;;;10259496;29;20197;-79
2020/12/11 19:40:37;;;;;;;10.63;9.53;;;5.80;99.90;;;;;;10241066;29;20289;-81
2020/12/11 19:45:38;;;;;;;10.33;9.33;;;5.70;99.90;;;;;;10247759;28;20228;-80
2020/12/11 19:50:40;;;;;;;9.00;7.90;;;5.70;99.90;;;;;;10245532;29;20224;-80
2020/12/11 19:55:43;;;;;;;9.60;8.10;;;5.70;99.90;;;;;;10215925;29;20201;-79
2020/12/11 20:00:45;;;;;;;9.90;8.90;;;5.70;99.90;;;;;;10210244;29;20705;-80
2020/12/11 20:05:47;;;;;;;7.93;7.20;;;5.60;99.90;;;;;;10248503;29;20225;-80
2020/12/11 20:10:50;;;;;;;8.47;7.47;;;5.60;99.90;;;;;;10226293;29;20213;-79
2020/12/11 20:15:51;;;;;;;9.07;7.83;;;5.60;99.90;;;;;;10230812;29;20237;-80
2020/12/11 20:20:54;;;;;;;8.20;7.40;;;5.60;99.90;;;;;;10228172;29;20231;-80
2020/12/11 20:25:57;;;;;;;8.83;8.03;;;5.60;99.90;;;;;;10216604;29;20208;-81
2020/12/11 20:31:00;;;;;;;9.33;8.33;;;5.60;99.90;;;;;;10226871;29;20242;-79
2020/12/11 20:36:04;;;;;;;9.70;8.70;;;5.60;99.90;;;;;;10220009;29;20200;-80
2020/12/11 20:41:06;;;;;;;10.00;9.00;;;5.50;99.90;;;;;;10225836;29;20588;-80
2020/12/11 20:46:08;;;;;;;9.50;8.50;;;5.50;99.90;;;;;;10220802;29;20296;-81
2020/12/11 20:51:23;;;;;;;11.10;9.93;;;5.50;99.90;;;;;;10233638;29;20221;-81
2020/12/11 20:56:33;;;;;;;9.03;8.13;;;5.40;99.90;;;;;;10226854;29;20930;-81
2020/12/11 21:01:39;;;;;;;11.77;10.53;;;5.40;99.90;;;;;;10244661;29;20588;-81
2020/12/11 21:06:46;;;;;;;10.77;9.67;;;5.30;99.90;;;;;;10218224;29;20201;-80
2020/12/11 21:11:51;;;;;;;12.90;11.60;;;5.20;99.90;;;;;;10215407;29;20700;-80
2020/12/11 21:16:56;;;;;;;16.00;12.97;;;5.10;99.90;;;;;;10218456;29;20201;-81
2020/12/11 21:21:57;;;;;;;14.13;11.93;;;5.10;99.90;;;;;;10216111;29;20224;-81
2020/12/11 21:27:00;;;;;;;16.93;13.30;;;5.00;99.90;;;;;;10233393;29;20208;-81
2020/12/11 21:32:02;;;;;;;14.10;12.30;;;5.00;99.90;;;;;;10236924;29;20221;-80
2020/12/11 21:37:03;;;;;;;12.07;9.57;;;5.10;99.90;;;;;;10204004;29;20292;-80
2020/12/11 21:42:06;;;;;;;12.03;10.50;;;5.20;99.90;;;;;;10213124;29;20382;-81
2020/12/11 21:47:09;;;;;;;10.63;9.53;;;5.30;99.90;;;;;;10198932;29;20201;-80
2020/12/11 21:52:11;;;;;;;9.77;8.77;;;5.30;99.90;;;;;;10188516;29;20282;-81
2020/12/11 21:57:15;;;;;;;7.50;6.80;;;5.30;99.90;;;;;;10163567;29;20289;-81
2020/12/11 22:02:17;;;;;;;8.80;7.93;;;5.40;99.90;;;;;;10179788;29;20224;-81
2020/12/11 22:07:20;;;;;;;8.83;8.03;;;5.50;99.90;;;;;;10161442;29;20209;-81
2020/12/11 22:12:22;;;;;;;9.07;8.23;;;5.60;99.90;;;;;;10185120;29;20209;-81
2020/12/11 22:17:24;;;;;;;8.60;7.90;;;5.70;99.90;;;;;;10236072;29;20193;-82
2020/12/11 22:22:26;;;;;;;10.80;9.70;;;5.70;99.90;;;;;;10198430;29;20232;-83
2020/12/11 22:27:31;;;;;;;8.37;7.17;;;5.70;99.90;;;;;;10215793;29;20256;-81
2020/12/11 22:32:34;;;;;;;10.87;8.77;;;5.70;99.90;;;;;;10216924;29;20607;-82
2020/12/11 22:37:37;;;;;;;8.50;7.70;;;5.70;99.90;;;;;;10246364;29;20247;-81
2020/12/11 22:42:40;;;;;;;8.73;7.83;;;5.70;99.90;;;;;;10215944;29;20235;-81
2020/12/11 22:47:44;;;;;;;8.80;7.90;;;5.60;99.90;;;;;;10199231;29;20678;-83
2020/12/11 22:52:46;;;;;;;9.90;8.93;;;5.60;99.90;;;;;;10227471;29;20224;-83
2020/12/11 22:57:49;;;;;;;10.00;9.10;;;5.60;99.90;;;;;;10240168;29;20823;-83
2020/12/11 23:02:53;;;;;;;9.60;8.70;;;5.60;99.90;;;;;;10220485;29;20674;-82
2020/12/11 23:07:56;;;;;;;10.23;9.23;;;5.60;99.90;;;;;;10210480;29;20628;-81
2020/12/11 23:13:01;;;;;;;10.33;9.23;;;5.60;99.90;;;;;;10221170;29;20217;-82
2020/12/11 23:18:04;;;;;;;7.97;6.87;;;5.60;99.90;;;;;;10200078;29;20208;-83
2020/12/11 23:23:06;;;;;;;9.63;8.20;;;5.60;99.90;;;;;;10241291;29;20220;-82
2020/12/11 23:28:08;;;;;;;9.27;8.37;;;5.60;99.90;;;;;;10226163;29;20192;-81
2020/12/11 23:33:10;;;;;;;11.03;8.90;;;5.50;99.90;;;;;;10202067;28;20202;-81
2020/12/11 23:38:14;;;;;;;10.27;9.20;;;5.50;99.90;;;;;;10231094;29;20670;-81
2020/12/11 23:43:17;;;;;;;10.97;9.87;;;5.50;99.90;;;;;;10214845;29;20622;-82
2020/12/11 23:48:18;;;;;;;12.90;9.10;;;5.60;99.90;;;;;;10221134;29;20655;-82
2020/12/11 23:53:20;;;;;;;10.20;9.00;;;5.60;99.90;;;;;;10216157;29;20204;-82
2020/12/11 23:58:23;;;;;;;10.17;9.17;;;5.60;99.90;;;;;;10208832;29;20232;-81
